createdAt,value
2019-05-14T00:00:38.596Z,1.77
2019-05-14T00:04:42.230Z,1.70
2019-05-14T00:08:44.081Z,1.33
2019-05-14T00:12:45.992Z,1.53
2019-05-14T00:16:47.901Z,1.70
2019-05-14T00:20:51.187Z,1.50
2019-05-14T00:24:53.432Z,1.50
2019-05-14T00:28:56.389Z,2.00
2019-05-14T00:32:58.277Z,1.67
2019-05-14T00:37:01.561Z,1.20
2019-05-14T00:41:03.911Z,1.90
2019-05-14T00:45:08.622Z,1.73
2019-05-14T00:49:11.914Z,1.47
2019-05-14T00:53:13.967Z,1.25
2019-05-14T00:57:15.869Z,1.43
2019-05-14T01:01:17.772Z,1.70
2019-05-14T01:05:21.547Z,1.60
2019-05-14T01:09:23.248Z,1.63
2019-05-14T01:13:25.517Z,1.87
2019-05-14T01:17:27.442Z,1.25
2019-05-14T01:21:31.154Z,1.13
2019-05-14T01:25:32.929Z,1.90
2019-05-14T01:29:34.850Z,1.87
2019-05-14T01:33:36.741Z,1.83
2019-05-14T01:37:38.700Z,1.90
2019-05-14T01:41:42.377Z,1.77
2019-05-14T01:45:44.489Z,2.10
2019-05-14T01:49:46.400Z,1.70
2019-05-14T01:53:48.285Z,1.70
2019-05-14T01:57:51.839Z,1.37
2019-05-14T02:01:53.830Z,2.00
2019-05-14T02:05:56.620Z,1.98
2019-05-14T02:10:00.974Z,2.03
2019-05-14T02:14:02.555Z,2.00
2019-05-14T02:18:04.482Z,1.77
2019-05-14T02:22:06.427Z,1.67
2019-05-14T02:26:08.330Z,1.82
2019-05-14T02:30:11.537Z,1.50
2019-05-14T02:34:13.450Z,1.50
2019-05-14T02:38:15.348Z,1.40
2019-05-14T02:42:19.750Z,1.80
2019-05-14T02:46:21.851Z,1.60
2019-05-14T02:50:24.101Z,2.10
2019-05-14T02:54:29.454Z,1.63
2019-05-14T02:58:30.170Z,1.60
2019-05-14T03:02:32.914Z,1.47
2019-05-14T03:06:34.878Z,1.83
2019-05-14T03:10:39.992Z,2.00
2019-05-14T03:14:40.624Z,2.20
2019-05-14T03:18:44.284Z,1.70
2019-05-14T03:23:01.716Z,1.90
2019-05-14T03:26:50.339Z,2.03
2019-05-14T03:30:53.343Z,1.80
2019-05-14T03:35:02.898Z,2.40
2019-05-14T03:39:01.616Z,1.82
2019-05-14T03:43:03.940Z,2.30
2019-05-14T03:47:09.949Z,2.47
2019-05-14T03:51:09.515Z,2.20
2019-05-14T03:55:11.636Z,2.30
2019-05-14T03:59:14.830Z,2.57
2019-05-14T04:03:19.837Z,2.50
2019-05-14T04:07:23.740Z,2.63
2019-05-14T04:11:31.117Z,2.53
2019-05-14T04:15:39.194Z,2.70
2019-05-14T04:19:42.937Z,2.40
2019-05-14T04:23:51.243Z,1.80
2019-05-14T04:27:55.199Z,2.10
2019-05-14T04:32:00.106Z,2.20
2019-05-14T04:36:02.748Z,2.30
2019-05-14T04:40:10.044Z,1.87
2019-05-14T04:44:11.140Z,1.62
2019-05-14T04:48:27.344Z,2.67
2019-05-14T04:52:20.258Z,2.60
2019-05-14T04:56:20.693Z,2.60
2019-05-14T05:00:22.583Z,2.40
2019-05-14T05:04:24.585Z,2.20
2019-05-14T05:08:26.502Z,1.63
2019-05-14T05:12:29.641Z,2.73
2019-05-14T05:16:31.663Z,2.53
2019-05-14T05:20:34.243Z,2.72
2019-05-14T05:24:38.147Z,2.53
2019-05-14T05:28:39.771Z,2.63
2019-05-14T05:32:41.653Z,2.33
2019-05-14T05:36:43.564Z,2.27
2019-05-14T05:40:45.444Z,1.90
2019-05-14T05:44:48.323Z,2.10
2019-05-14T05:48:50.334Z,2.20
2019-05-14T05:52:53.843Z,2.40
2019-05-14T05:56:58.190Z,2.10
2019-05-14T06:01:00.161Z,2.10
2019-05-14T06:05:02.139Z,2.08
2019-05-14T06:09:08.705Z,2.10
2019-05-14T06:13:13.501Z,2.40
2019-05-14T06:17:13.736Z,2.22
2019-05-14T06:21:15.615Z,1.97
2019-05-14T06:25:20.891Z,2.30
2019-05-14T06:29:21.119Z,2.10
2019-05-14T06:33:23.005Z,2.20
2019-05-14T06:37:24.910Z,2.30
2019-05-14T06:41:33.568Z,1.90
2019-05-14T06:45:35.449Z,2.30
2019-05-14T06:49:38.565Z,2.33
2019-05-14T06:53:40.964Z,2.10
2019-05-14T06:57:43.452Z,2.33
2019-05-14T07:01:45.359Z,1.83
2019-05-14T07:05:49.252Z,2.00
2019-05-14T07:09:50.997Z,2.07
2019-05-14T07:13:52.904Z,2.33
2019-05-14T07:17:54.801Z,2.00
2019-05-14T07:21:58.303Z,2.07
2019-05-14T07:26:00.403Z,1.87
2019-05-14T07:30:02.308Z,2.00
2019-05-14T07:34:05.308Z,2.08
2019-05-14T07:38:08.967Z,2.27
2019-05-14T07:42:10.801Z,1.90
2019-05-14T07:46:12.695Z,2.00
2019-05-14T07:50:15.595Z,2.33
2019-05-14T07:54:19.473Z,2.10
2019-05-14T07:58:21.085Z,2.07
2019-05-14T08:02:22.976Z,1.70
2019-05-14T08:06:28.030Z,1.60
2019-05-14T08:10:29.461Z,1.70
2019-05-14T08:14:42.639Z,1.63
2019-05-14T08:18:35.043Z,1.67
2019-05-14T08:22:38.288Z,1.73
2019-05-14T08:26:42.901Z,1.73
2019-05-14T08:30:43.952Z,1.80
2019-05-14T08:34:47.843Z,1.60
2019-05-14T08:38:50.235Z,1.40
2019-05-14T08:42:52.337Z,1.70
2019-05-14T08:46:54.241Z,1.40
2019-05-14T08:50:58.727Z,1.40
2019-05-14T08:55:11.065Z,1.80
2019-05-14T08:59:04.561Z,1.60
2019-05-14T09:03:08.477Z,1.80
2019-05-14T09:07:10.157Z,1.77
2019-05-14T09:11:12.072Z,1.52
2019-05-14T09:15:14.378Z,1.57
2019-05-14T09:19:16.285Z,1.40
2019-05-14T09:23:19.030Z,1.30
2019-05-14T09:27:21.185Z,1.40
2019-05-14T09:31:23.097Z,1.43
2019-05-14T09:35:25.006Z,1.53
2019-05-14T09:39:28.956Z,1.47
2019-05-14T09:43:30.608Z,1.20
2019-05-14T09:47:32.572Z,1.20
2019-05-14T09:51:34.488Z,1.07
2019-05-14T09:55:38.689Z,1.10
2019-05-14T09:59:40.277Z,1.20
2019-05-14T10:03:42.209Z,1.23
2019-05-14T10:07:44.116Z,1.00
2019-05-14T10:11:48.069Z,1.40
2019-05-14T10:15:49.855Z,1.40
2019-05-14T10:19:51.770Z,1.47
2019-05-14T10:23:53.723Z,1.40
2019-05-14T10:27:59.017Z,1.23
2019-05-14T10:32:00.564Z,1.50
2019-05-14T10:36:02.503Z,1.40
2019-05-14T10:40:10.100Z,1.20
2019-05-14T10:44:10.827Z,1.17
2019-05-14T10:48:12.742Z,1.10
2019-05-14T10:52:14.652Z,1.20
2019-05-14T10:56:19.319Z,1.13
2019-05-14T11:00:21.102Z,1.50
2019-05-14T11:04:23.024Z,1.20
2019-05-14T11:08:24.949Z,1.20
2019-05-14T11:12:29.489Z,1.43
2019-05-14T11:16:30.475Z,1.43
2019-05-14T11:20:32.388Z,1.33
2019-05-14T11:24:34.405Z,1.30
2019-05-14T11:28:39.233Z,1.40
2019-05-14T11:32:40.015Z,1.10
2019-05-14T11:36:41.953Z,1.10
2019-05-14T11:40:43.855Z,1.30
2019-05-14T11:44:45.852Z,1.70
2019-05-14T11:48:49.098Z,1.20
2019-05-14T11:52:51.238Z,1.10
2019-05-14T11:56:53.153Z,1.13
2019-05-14T12:00:55.075Z,1.27
2019-05-14T12:04:56.977Z,1.20
2019-05-14T12:08:59.252Z,1.03
2019-05-14T12:13:01.177Z,1.20
2019-05-14T12:17:03.264Z,1.10
2019-05-14T12:21:05.165Z,0.98
2019-05-14T12:25:08.292Z,1.30
2019-05-14T12:29:10.341Z,1.00
2019-05-14T12:33:12.554Z,1.02
2019-05-14T12:37:14.473Z,1.10
2019-05-14T12:41:19.200Z,1.10
2019-05-14T12:45:20.489Z,1.13
2019-05-14T12:49:22.404Z,1.17
2019-05-14T12:53:24.499Z,1.00
2019-05-14T12:57:26.409Z,1.07
2019-05-14T13:01:29.191Z,0.97
2019-05-14T13:05:31.093Z,1.20
2019-05-14T13:09:33.013Z,1.10
2019-05-14T13:13:34.919Z,1.10
2019-05-14T13:17:38.891Z,1.20
2019-05-14T13:21:40.469Z,1.27
2019-05-14T13:25:42.391Z,1.30
2019-05-14T13:29:44.305Z,1.20
2019-05-14T13:33:48.615Z,1.20
2019-05-14T13:37:49.845Z,1.30
2019-05-14T13:41:51.719Z,1.23
2019-05-14T13:45:53.661Z,1.00
2019-05-14T13:49:59.098Z,1.50
2019-05-14T13:54:00.400Z,1.40
2019-05-14T13:58:02.317Z,1.20
2019-05-14T14:02:04.319Z,1.35
2019-05-14T14:06:10.053Z,1.20
2019-05-14T14:10:10.780Z,1.20
2019-05-14T14:14:12.671Z,1.40
2019-05-14T14:18:14.603Z,0.93
2019-05-14T14:22:19.086Z,1.03
2019-05-14T14:26:20.191Z,1.27
2019-05-14T14:30:22.161Z,1.13
2019-05-14T14:34:24.070Z,1.17
2019-05-14T14:38:25.970Z,1.00
2019-05-14T14:42:29.744Z,1.30
2019-05-14T14:46:31.550Z,1.30
2019-05-14T14:50:33.523Z,1.43
2019-05-14T14:54:35.480Z,1.33
2019-05-14T14:58:39.349Z,1.53
2019-05-14T15:02:41.595Z,1.40
2019-05-14T15:06:43.618Z,1.17
2019-05-14T15:10:48.566Z,1.13
2019-05-14T15:14:50.298Z,1.10
2019-05-14T15:18:52.194Z,1.00
2019-05-14T15:22:54.122Z,1.00
2019-05-14T15:27:06.530Z,1.15
2019-05-14T15:31:00.732Z,1.10
2019-05-14T15:35:02.815Z,0.90
2019-05-14T15:39:09.624Z,1.05
2019-05-14T15:43:11.281Z,1.00
2019-05-14T15:47:13.209Z,1.45
2019-05-14T15:51:15.397Z,1.27
2019-05-14T15:55:18.344Z,1.50
2019-05-14T15:59:21.786Z,1.50
2019-05-14T16:03:23.711Z,1.40
2019-05-14T16:07:25.618Z,1.67
2019-05-14T16:11:29.226Z,1.80
2019-05-14T16:15:32.251Z,1.77
2019-05-14T16:19:34.145Z,2.00
2019-05-14T16:23:38.765Z,1.77
2019-05-14T16:27:40.809Z,1.47
2019-05-14T16:31:43.698Z,1.53
2019-05-14T16:35:45.692Z,1.40
2019-05-14T16:39:48.875Z,1.47
2019-05-14T16:43:51.063Z,1.30
2019-05-14T16:47:52.952Z,1.30
2019-05-14T16:51:54.854Z,1.33
2019-05-14T16:55:57.092Z,1.50
2019-05-14T16:59:59.019Z,1.17
2019-05-14T17:04:00.910Z,1.07
2019-05-14T17:08:02.889Z,1.20
2019-05-14T17:12:04.941Z,1.10
2019-05-14T17:16:08.657Z,0.90
2019-05-14T17:20:11.155Z,1.00
2019-05-14T17:24:13.066Z,1.02
2019-05-14T17:28:18.961Z,0.80
2019-05-14T17:32:20.944Z,1.03
2019-05-14T17:36:22.836Z,1.00
2019-05-14T17:40:24.775Z,1.10
2019-05-14T17:44:26.688Z,1.10
2019-05-14T17:48:28.692Z,1.10
2019-05-14T17:52:30.616Z,1.10
2019-05-14T17:56:32.568Z,1.10
2019-05-14T18:00:34.454Z,1.00
2019-05-14T18:04:36.345Z,1.20
2019-05-14T18:08:38.324Z,1.40
2019-05-14T18:12:40.262Z,1.00
2019-05-14T18:16:42.144Z,1.00
2019-05-14T18:20:44.127Z,1.00
2019-05-14T18:24:48.545Z,0.97
2019-05-14T18:28:49.649Z,1.20
2019-05-14T18:32:51.549Z,1.30
2019-05-14T18:36:53.435Z,1.10
2019-05-14T18:40:55.341Z,1.30
2019-05-14T18:44:59.030Z,1.30
2019-05-14T18:49:01.779Z,1.40
2019-05-14T18:53:03.670Z,1.12
2019-05-14T18:57:05.591Z,1.30
2019-05-14T19:01:08.086Z,1.00
2019-05-14T19:05:11.398Z,1.30
2019-05-14T19:09:13.375Z,1.27
2019-05-14T19:13:15.274Z,1.43
2019-05-14T19:17:18.710Z,1.30
2019-05-14T19:21:20.747Z,0.97
2019-05-14T19:25:22.627Z,1.50
2019-05-14T19:29:24.524Z,1.47
2019-05-14T19:33:28.533Z,1.40
2019-05-14T19:37:30.108Z,1.30
2019-05-14T19:41:32.016Z,1.37
2019-05-14T19:45:33.894Z,1.27
2019-05-14T19:49:38.055Z,1.30
2019-05-14T19:53:39.440Z,1.20
2019-05-14T19:57:41.364Z,1.50
2019-05-14T20:01:43.274Z,0.87
2019-05-14T20:05:45.788Z,1.30
2019-05-14T20:09:48.310Z,1.60
2019-05-14T20:13:50.383Z,1.57
2019-05-14T20:17:52.290Z,1.30
2019-05-14T20:21:54.183Z,1.33
2019-05-14T20:25:58.692Z,1.67
2019-05-14T20:30:00.686Z,1.37
2019-05-14T20:34:02.587Z,1.60
2019-05-14T20:38:04.468Z,1.47
2019-05-14T20:42:08.978Z,1.67
2019-05-14T20:46:10.161Z,1.43
2019-05-14T20:50:12.666Z,1.50
2019-05-14T20:54:14.569Z,1.70
2019-05-14T20:58:19.557Z,1.50
2019-05-14T21:02:20.085Z,1.83
2019-05-14T21:06:22.008Z,1.80
2019-05-14T21:10:23.907Z,1.47
2019-05-14T21:14:25.807Z,1.50
2019-05-14T21:18:35.289Z,1.60
2019-05-14T21:22:31.298Z,1.93
2019-05-14T21:26:33.188Z,2.13
2019-05-14T21:30:35.402Z,2.07
2019-05-14T21:34:38.162Z,2.00
2019-05-14T21:38:41.116Z,1.73
2019-05-14T21:42:43.153Z,2.03
2019-05-14T21:46:45.051Z,1.73
2019-05-14T21:50:46.946Z,1.83
2019-05-14T21:54:58.618Z,2.30
2019-05-14T21:59:01.330Z,2.27
2019-05-14T22:03:04.946Z,2.20
2019-05-14T22:07:08.963Z,1.90
2019-05-14T22:11:10.687Z,2.10
2019-05-14T22:15:13.121Z,2.17
2019-05-14T22:19:15.098Z,1.97
2019-05-14T22:23:18.316Z,2.40
2019-05-14T22:27:20.584Z,2.50
2019-05-14T22:31:22.470Z,2.20
2019-05-14T22:35:24.362Z,2.30
2019-05-14T22:39:26.365Z,2.63
2019-05-14T22:43:28.798Z,2.63
2019-05-14T22:47:30.837Z,2.60
2019-05-14T22:51:33.284Z,2.57
2019-05-14T22:55:35.308Z,2.73
2019-05-14T22:59:39.226Z,2.60
2019-05-14T23:03:40.806Z,2.83
2019-05-14T23:07:42.698Z,2.20
2019-05-14T23:11:44.601Z,2.30
2019-05-14T23:15:48.148Z,2.90
2019-05-14T23:19:50.141Z,2.40
2019-05-14T23:23:53.312Z,2.50
2019-05-14T23:27:55.198Z,2.37
2019-05-14T23:31:59.414Z,2.20
2019-05-14T23:36:01.382Z,2.20
2019-05-14T23:40:03.839Z,2.40
2019-05-14T23:44:08.170Z,2.55
2019-05-14T23:48:09.739Z,2.23
2019-05-14T23:52:11.834Z,2.20
2019-05-14T23:56:13.716Z,2.10
